createdAt,value
2018-11-28T00:01:14.165Z,97603.24
2018-11-28T00:03:43.967Z,97609.09
2018-11-28T00:06:11.485Z,97608.12
2018-11-28T00:11:25.547Z,97613.28
2018-11-28T00:13:52.614Z,97613.05
2018-11-28T00:16:20.041Z,97612.55
2018-11-28T00:18:48.949Z,97616.41
2018-11-28T00:21:19.990Z,97610.03
2018-11-28T00:23:48.876Z,97614.17
2018-11-28T00:26:16.605Z,97610.27
2018-11-28T00:28:50.133Z,97610.74
2018-11-28T00:31:16.794Z,97620.31
2018-11-28T00:33:44.241Z,97619.92
2018-11-28T00:36:14.607Z,97622.98
2018-11-28T00:38:43.780Z,97625.88
2018-11-28T00:41:12.301Z,97620.39
2018-11-28T00:43:40.910Z,97615.54
2018-11-28T00:48:58.517Z,97624.47
2018-11-28T00:51:29.087Z,97631.50
2018-11-28T00:53:59.767Z,97641.03
2018-11-28T00:56:26.568Z,97637.48
2018-11-28T00:58:54.007Z,97641.77
2018-11-28T01:01:21.461Z,97644.56
2018-11-28T01:03:48.536Z,97647.67
2018-11-28T01:06:17.449Z,97642.59
2018-11-28T01:08:44.898Z,97642.45
2018-11-28T01:11:14.368Z,97648.21
2018-11-28T01:13:41.802Z,97650.72
2018-11-28T01:16:09.854Z,97656.83
2018-11-28T01:18:44.044Z,97664.92
2018-11-28T01:21:12.787Z,97669.47
2018-11-28T01:23:40.091Z,97662.53
2018-11-28T01:26:09.901Z,97660.72
2018-11-28T01:28:38.489Z,97669.45
2018-11-28T01:31:05.929Z,97668.75
2018-11-28T01:36:15.403Z,97672.09
2018-11-28T01:38:42.847Z,97675.69
2018-11-28T01:41:17.496Z,97681.09
2018-11-28T01:43:46.507Z,97673.86
2018-11-28T01:46:13.964Z,97679.54
2018-11-28T01:48:40.383Z,97679.45
2018-11-28T01:51:10.708Z,97683.20
2018-11-28T01:53:38.152Z,97671.36
2018-11-28T01:56:05.584Z,97682.98
2018-11-28T01:58:34.780Z,97684.52
2018-11-28T02:01:03.649Z,97692.16
2018-11-28T02:03:37.308Z,97688.09
2018-11-28T02:06:06.480Z,97686.98
2018-11-28T02:08:33.937Z,97689.00
2018-11-28T02:11:02.762Z,97692.02
2018-11-28T02:13:35.235Z,97692.09
2018-11-28T02:16:04.345Z,97688.00
2018-11-28T02:18:33.851Z,97705.88
2018-11-28T02:21:13.881Z,97699.16
2018-11-28T02:23:41.040Z,97705.70
2018-11-28T02:26:12.103Z,97699.33
2018-11-28T02:31:46.190Z,97704.89
2018-11-28T02:34:13.820Z,97711.71
2018-11-28T02:36:43.631Z,97718.70
2018-11-28T02:39:14.893Z,97715.58
2018-11-28T02:41:44.498Z,97717.78
2018-11-28T02:44:12.728Z,97719.63
2018-11-28T02:46:41.935Z,97719.25
2018-11-28T02:49:12.283Z,97716.86
2018-11-28T02:57:10.723Z,97718.64
2018-11-28T02:59:39.499Z,97705.74
2018-11-28T03:02:07.760Z,97732.53
2018-11-28T03:04:34.433Z,97732.86
2018-11-28T03:07:02.569Z,97730.64
2018-11-28T03:09:31.708Z,97729.05
2018-11-28T03:11:58.125Z,97724.61
2018-11-28T03:14:25.609Z,97738.98
2018-11-28T03:16:54.293Z,97746.97
2018-11-28T03:19:23.192Z,97739.78
2018-11-28T03:21:52.000Z,97744.54
2018-11-28T03:24:20.593Z,97744.19
2018-11-28T03:26:52.182Z,97749.23
2018-11-28T03:29:20.319Z,97752.44
2018-11-28T03:31:49.687Z,97762.14
2018-11-28T03:39:51.776Z,97774.59
2018-11-28T03:44:50.267Z,97786.25
2018-11-28T03:47:22.646Z,97779.34
2018-11-28T03:49:51.359Z,97778.45
2018-11-28T03:52:18.611Z,97785.36
2018-11-28T03:54:45.284Z,97796.98
2018-11-28T03:57:13.504Z,97798.69
2018-11-28T03:59:39.922Z,97806.73
2018-11-28T04:02:24.216Z,97802.89
2018-11-28T04:04:55.296Z,97799.13
2018-11-28T04:07:21.933Z,97808.02
2018-11-28T04:09:50.393Z,97808.53
2018-11-28T04:12:24.452Z,97814.86
2018-11-28T04:14:51.605Z,97805.70
2018-11-28T04:17:18.061Z,97818.09
2018-11-28T04:19:47.997Z,97823.27
2018-11-28T04:27:28.039Z,97821.28
2018-11-28T04:29:54.749Z,97820.30
2018-11-28T04:32:22.216Z,97818.36
2018-11-28T04:34:54.573Z,97825.99
2018-11-28T04:37:21.281Z,97819.34
2018-11-28T04:39:51.857Z,97833.36
2018-11-28T04:42:21.023Z,97839.72
2018-11-28T04:44:50.068Z,97836.03
2018-11-28T04:47:19.143Z,97843.75
2018-11-28T04:49:45.587Z,97846.80
2018-11-28T04:52:19.258Z,97842.61
2018-11-28T04:54:45.718Z,97837.69
2018-11-28T04:57:29.408Z,97845.23
2018-11-28T04:59:58.080Z,97845.92
2018-11-28T05:02:27.569Z,97840.78
2018-11-28T05:04:53.985Z,97845.50
2018-11-28T05:07:21.421Z,97845.75
2018-11-28T05:09:50.698Z,97852.75
2018-11-28T05:12:18.137Z,97854.22
2018-11-28T05:14:47.145Z,97855.41
2018-11-28T05:17:17.040Z,97863.09
2018-11-28T05:19:43.469Z,97863.14
2018-11-28T05:22:13.096Z,97867.83
2018-11-28T05:24:41.935Z,97865.95
2018-11-28T05:27:09.485Z,97873.56
2018-11-28T05:32:24.986Z,97871.16
2018-11-28T05:34:51.408Z,97882.05
2018-11-28T05:37:22.416Z,97889.70
2018-11-28T05:39:51.810Z,97890.59
2018-11-28T05:42:20.456Z,97887.68
2018-11-28T05:44:48.182Z,97892.06
2018-11-28T05:47:15.016Z,97884.53
2018-11-28T05:49:44.161Z,97883.80
2018-11-28T05:52:28.112Z,97890.52
2018-11-28T05:54:57.543Z,97895.77
2018-11-28T05:57:26.685Z,97896.39
2018-11-28T05:59:55.583Z,97891.78
2018-11-28T06:02:22.550Z,97903.03
2018-11-28T06:04:50.010Z,97907.30
2018-11-28T06:07:21.203Z,97916.91
2018-11-28T06:09:48.105Z,97915.93
2018-11-28T06:12:18.599Z,97922.79
2018-11-28T06:14:46.798Z,97926.88
2018-11-28T06:17:14.796Z,97931.06
2018-11-28T06:19:42.281Z,97925.73
2018-11-28T06:30:32.052Z,97952.77
2018-11-28T06:33:02.313Z,97957.75
2018-11-28T06:35:30.524Z,97956.45
2018-11-28T06:37:59.639Z,97962.19
2018-11-28T06:40:26.547Z,97960.56
2018-11-28T06:42:55.186Z,97973.16
2018-11-28T06:45:26.053Z,97973.25
2018-11-28T06:47:54.224Z,97984.78
2018-11-28T06:50:24.874Z,97984.39
2018-11-28T06:52:53.394Z,97989.02
2018-11-28T06:55:27.182Z,98010.34
2018-11-28T06:57:57.872Z,98024.77
2018-11-28T07:03:13.636Z,98032.23
2018-11-28T07:05:43.790Z,98036.67
2018-11-28T07:08:14.744Z,98031.30
2018-11-28T07:10:41.414Z,98045.03
2018-11-28T07:13:09.104Z,98053.98
2018-11-28T07:21:11.398Z,98070.38
2018-11-28T07:23:39.764Z,98088.03
2018-11-28T07:26:10.439Z,98086.42
2018-11-28T07:28:37.875Z,98082.61
2018-11-28T07:31:08.014Z,98092.94
2018-11-28T07:33:34.461Z,98102.06
2018-11-28T07:36:00.924Z,98093.02
2018-11-28T07:38:32.111Z,98108.70
2018-11-28T07:40:58.774Z,98109.13
2018-11-28T07:43:34.323Z,98108.78
2018-11-28T07:46:03.214Z,98109.08
2018-11-28T07:48:32.374Z,98114.06
2018-11-28T07:51:00.056Z,98112.73
2018-11-28T07:53:45.875Z,98124.73
2018-11-28T07:56:17.723Z,98134.56
2018-11-28T07:58:45.940Z,98134.45
2018-11-28T08:01:17.584Z,98142.17
2018-11-28T08:03:46.287Z,98140.32
2018-11-28T08:06:15.415Z,98144.41
2018-11-28T08:08:48.054Z,98158.47
2018-11-28T08:11:16.209Z,98164.01
2018-11-28T08:13:47.435Z,98163.78
2018-11-28T08:16:24.066Z,98161.41
2018-11-28T08:18:52.155Z,98163.31
2018-11-28T08:21:23.207Z,98163.87
2018-11-28T08:23:51.351Z,98161.08
2018-11-28T08:26:29.535Z,98167.05
2018-11-28T08:28:57.101Z,98174.16
2018-11-28T08:31:27.325Z,98172.84
2018-11-28T08:34:00.791Z,98172.34
2018-11-28T08:36:29.311Z,98177.13
2018-11-28T08:38:55.666Z,98186.53
2018-11-28T08:41:23.107Z,98190.42
2018-11-28T08:43:52.167Z,98196.48
2018-11-28T08:46:18.616Z,98198.40
2018-11-28T08:48:48.040Z,98198.26
2018-11-28T08:51:14.723Z,98202.86
2018-11-28T08:53:46.831Z,98208.77
2018-11-28T08:56:13.254Z,98216.33
2018-11-28T08:58:42.225Z,98215.91
2018-11-28T09:01:09.682Z,98216.09
2018-11-28T09:03:37.741Z,98226.25
2018-11-28T09:06:04.313Z,98227.88
2018-11-28T09:08:33.236Z,98226.31
2018-11-28T09:11:00.677Z,98230.28
2018-11-28T09:13:27.480Z,98239.38
2018-11-28T09:15:55.205Z,98236.89
2018-11-28T09:18:24.411Z,98238.00
2018-11-28T09:20:50.869Z,98235.69
2018-11-28T09:23:21.358Z,98238.38
2018-11-28T09:25:52.037Z,98232.16
2018-11-28T09:28:20.595Z,98239.36
2018-11-28T09:30:47.027Z,98241.91
2018-11-28T09:33:13.476Z,98239.44
2018-11-28T09:35:41.551Z,98239.41
2018-11-28T09:38:10.110Z,98235.71
2018-11-28T09:40:38.851Z,98233.50
2018-11-28T09:43:05.304Z,98239.03
2018-11-28T09:45:32.750Z,98239.70
2018-11-28T09:47:59.447Z,98236.82
2018-11-28T09:50:25.992Z,98248.64
2018-11-28T09:52:54.660Z,98241.95
2018-11-28T09:55:21.299Z,98240.49
2018-11-28T09:57:48.646Z,98234.15
2018-11-28T10:00:15.207Z,98236.45
2018-11-28T10:02:42.649Z,98233.77
2018-11-28T10:05:11.569Z,98238.20
2018-11-28T10:07:38.002Z,98235.19
2018-11-28T10:10:07.544Z,98230.33
2018-11-28T10:12:34.765Z,98237.66
2018-11-28T10:17:47.373Z,98234.90
2018-11-28T10:20:15.774Z,98244.29
2018-11-28T10:22:43.577Z,98239.89
2018-11-28T10:27:59.321Z,98236.34
2018-11-28T10:30:25.796Z,98238.16
2018-11-28T10:32:52.231Z,98243.41
2018-11-28T10:38:06.745Z,98242.01
2018-11-28T10:40:37.255Z,98251.41
2018-11-28T10:43:05.420Z,98250.23
2018-11-28T10:45:34.933Z,98247.95
2018-11-28T10:48:05.531Z,98253.44
2018-11-28T10:50:33.624Z,98245.44
2018-11-28T10:53:00.397Z,98244.53
2018-11-28T10:55:39.933Z,98250.39
2018-11-28T10:58:08.509Z,98245.66
2018-11-28T11:00:35.060Z,98249.17
2018-11-28T11:03:02.524Z,98263.16
2018-11-28T11:08:18.310Z,98248.73
2018-11-28T11:10:47.124Z,98244.23
2018-11-28T11:13:27.301Z,98243.45
2018-11-28T11:15:55.934Z,98241.03
2018-11-28T11:18:22.410Z,98250.09
2018-11-28T11:20:49.117Z,98252.00
2018-11-28T11:23:17.810Z,98248.09
2018-11-28T11:25:59.800Z,98243.35
2018-11-28T11:28:26.495Z,98245.48
2018-11-28T11:30:53.522Z,98243.59
2018-11-28T11:33:22.186Z,98248.30
2018-11-28T11:38:35.611Z,98253.66
2018-11-28T11:43:51.087Z,98260.07
2018-11-28T11:46:17.536Z,98259.12
2018-11-28T11:48:45.617Z,98258.33
2018-11-28T11:51:14.831Z,98257.70
2018-11-28T11:53:42.276Z,98251.86
2018-11-28T11:56:11.387Z,98258.84
2018-11-28T11:58:41.035Z,98246.14
2018-11-28T12:03:55.689Z,98250.27
2018-11-28T12:06:22.344Z,98252.22
2018-11-28T12:08:51.240Z,98254.87
2018-11-28T12:11:22.145Z,98254.58
2018-11-28T12:13:53.850Z,98249.31
2018-11-28T12:16:21.669Z,98248.06
2018-11-28T12:18:47.785Z,98246.70
2018-11-28T12:21:27.481Z,98258.28
2018-11-28T12:23:53.942Z,98251.05
2018-11-28T12:29:10.486Z,98256.30
2018-11-28T12:31:37.024Z,98253.48
2018-11-28T12:34:05.601Z,98254.31
2018-11-28T12:36:36.594Z,98259.89
2018-11-28T12:39:06.361Z,98263.95
2018-11-28T12:41:33.082Z,98266.77
2018-11-28T12:43:59.515Z,98260.98
2018-11-28T12:46:41.296Z,98262.08
2018-11-28T12:49:09.979Z,98262.89
2018-11-28T12:51:49.741Z,98261.16
2018-11-28T12:54:17.340Z,98258.03
2018-11-28T12:56:44.306Z,98260.36
2018-11-28T12:59:13.146Z,98253.28
2018-11-28T13:01:40.650Z,98260.45
2018-11-28T13:04:07.958Z,98257.22
2018-11-28T13:06:38.379Z,98255.20
2018-11-28T13:09:07.537Z,98255.19
2018-11-28T13:11:34.059Z,98253.52
2018-11-28T13:14:00.504Z,98246.77
2018-11-28T13:19:19.929Z,98261.83
2018-11-28T13:21:46.748Z,98260.50
2018-11-28T13:24:17.994Z,98265.31
2018-11-28T13:26:45.278Z,98255.61
2018-11-28T13:31:57.304Z,98261.27
2018-11-28T13:34:23.765Z,98270.89
2018-11-28T13:36:51.461Z,98270.80
2018-11-28T13:39:17.909Z,98270.33
2018-11-28T13:41:46.631Z,98273.56
2018-11-28T13:44:13.304Z,98281.31
2018-11-28T13:46:55.725Z,98280.05
2018-11-28T13:49:24.569Z,98281.98
2018-11-28T13:51:53.275Z,98279.62
2018-11-28T13:54:23.571Z,98276.19
2018-11-28T13:59:45.637Z,98283.88
2018-11-28T14:02:16.584Z,98280.68
2018-11-28T14:04:45.562Z,98284.13
2018-11-28T14:09:59.970Z,98286.36
2018-11-28T14:12:29.134Z,98288.33
2018-11-28T14:14:59.705Z,98291.89
2018-11-28T14:17:26.185Z,98293.53
2018-11-28T14:19:56.243Z,98303.41
2018-11-28T14:22:22.686Z,98302.13
2018-11-28T14:24:51.299Z,98301.70
2018-11-28T14:27:25.618Z,98301.95
2018-11-28T14:29:53.686Z,98316.72
2018-11-28T14:32:22.704Z,98307.33
2018-11-28T14:34:50.143Z,98310.00
2018-11-28T14:40:04.193Z,98325.22
2018-11-28T14:42:32.669Z,98321.42
2018-11-28T14:45:00.191Z,98327.06
2018-11-28T14:47:30.895Z,98335.02
2018-11-28T14:50:01.031Z,98333.35
2018-11-28T14:52:28.463Z,98338.09
2018-11-28T14:54:55.631Z,98344.47
2018-11-28T15:00:07.856Z,98339.35
2018-11-28T15:02:38.452Z,98338.00
2018-11-28T15:05:05.150Z,98344.05
2018-11-28T15:07:37.560Z,98336.48
2018-11-28T15:10:14.267Z,98348.03
2018-11-28T15:12:40.704Z,98351.27
2018-11-28T15:15:09.482Z,98357.88
2018-11-28T15:17:44.527Z,98355.80
2018-11-28T15:20:14.035Z,98363.21
2018-11-28T15:22:46.253Z,98366.33
2018-11-28T15:25:19.858Z,98355.64
2018-11-28T15:27:49.628Z,98366.62
2018-11-28T15:30:18.627Z,98371.17
2018-11-28T15:32:46.323Z,98373.25
2018-11-28T15:38:02.572Z,98380.93
2018-11-28T15:40:33.333Z,98381.08
2018-11-28T15:43:03.778Z,98382.23
2018-11-28T15:45:33.676Z,98386.88
2018-11-28T15:48:06.225Z,98389.83
2018-11-28T15:50:34.708Z,98395.44
2018-11-28T15:53:03.732Z,98395.78
2018-11-28T15:55:32.591Z,98402.09
2018-11-28T15:58:17.245Z,98393.63
2018-11-28T16:00:46.308Z,98400.03
2018-11-28T16:03:13.055Z,98401.67
2018-11-28T16:05:40.496Z,98407.14
2018-11-28T16:11:01.470Z,98417.23
2018-11-28T16:13:28.516Z,98420.88
2018-11-28T16:15:55.975Z,98428.23
2018-11-28T16:18:26.296Z,98430.59
2018-11-28T16:21:10.161Z,98432.48
2018-11-28T16:23:36.590Z,98440.84
2018-11-28T16:26:06.541Z,98440.75
2018-11-28T16:28:46.407Z,98436.11
2018-11-28T16:33:59.650Z,98444.23
2018-11-28T16:36:36.960Z,98447.23
2018-11-28T16:39:08.761Z,98451.13
2018-11-28T16:41:37.444Z,98455.61
2018-11-28T16:44:03.952Z,98450.65
2018-11-28T16:46:34.796Z,98460.16
2018-11-28T16:49:04.269Z,98460.87
2018-11-28T16:51:33.206Z,98471.87
2018-11-28T16:54:02.360Z,98461.80
2018-11-28T16:56:32.655Z,98464.75
2018-11-28T16:58:59.360Z,98473.86
2018-11-28T17:01:25.798Z,98476.92
2018-11-28T17:03:53.279Z,98472.66
2018-11-28T17:06:22.159Z,98470.28
2018-11-28T17:08:51.791Z,98475.16
2018-11-28T17:11:20.622Z,98477.65
2018-11-28T17:13:47.094Z,98480.92
2018-11-28T17:16:15.695Z,98484.86
2018-11-28T17:18:59.000Z,98493.93
2018-11-28T17:21:38.939Z,98488.89
2018-11-28T17:24:06.011Z,98487.00
2018-11-28T17:26:34.511Z,98493.51
2018-11-28T17:30:18.833Z,98487.84
2018-11-28T17:32:42.373Z,98497.05
2018-11-28T17:35:13.170Z,98506.51
2018-11-28T17:37:40.528Z,98504.02
2018-11-28T17:40:09.351Z,98509.95
2018-11-28T17:42:37.074Z,98510.30
2018-11-28T17:45:07.186Z,98516.80
2018-11-28T17:47:34.659Z,98516.22
2018-11-28T17:50:02.139Z,98519.28
2018-11-28T17:52:31.542Z,98517.38
2018-11-28T17:54:59.044Z,98524.63
2018-11-28T17:57:26.458Z,98526.03
2018-11-28T18:00:07.634Z,98525.64
2018-11-28T18:02:35.696Z,98530.47
2018-11-28T18:05:03.407Z,98529.45
2018-11-28T18:07:29.933Z,98537.27
2018-11-28T18:09:59.188Z,98547.45
2018-11-28T18:12:29.982Z,98546.26
2018-11-28T18:14:57.813Z,98555.75
2018-11-28T18:20:13.594Z,98544.50
2018-11-28T18:22:42.011Z,98549.20
2018-11-28T18:25:12.697Z,98552.87
2018-11-28T18:27:39.706Z,98551.63
2018-11-28T18:30:07.471Z,98553.80
2018-11-28T18:32:34.929Z,98551.06
2018-11-28T18:35:01.406Z,98551.77
2018-11-28T18:37:27.857Z,98553.91
2018-11-28T18:39:55.575Z,98554.98
2018-11-28T18:42:34.171Z,98558.42
2018-11-28T18:45:03.915Z,98554.05
2018-11-28T18:47:32.401Z,98558.28
2018-11-28T18:50:01.267Z,98552.48
2018-11-28T18:52:27.915Z,98553.34
2018-11-28T18:54:58.999Z,98555.65
2018-11-28T19:00:11.344Z,98571.84
2018-11-28T19:02:47.811Z,98570.12
2018-11-28T19:05:15.251Z,98570.28
2018-11-28T19:07:44.559Z,98578.69
2018-11-28T19:10:16.373Z,98576.21
2018-11-28T19:12:42.923Z,98574.74
2018-11-28T19:15:17.034Z,98575.78
2018-11-28T19:17:45.708Z,98571.02
2018-11-28T19:20:13.064Z,98576.13
2018-11-28T19:22:41.606Z,98585.34
2018-11-28T19:25:08.210Z,98577.33
2018-11-28T19:27:34.483Z,98587.28
2018-11-28T19:30:03.907Z,98587.61
2018-11-28T19:35:26.185Z,98589.90
2018-11-28T19:37:58.187Z,98595.99
2018-11-28T19:40:31.684Z,98599.85
2018-11-28T19:46:00.714Z,98602.06
2018-11-28T19:56:16.384Z,98622.40
2018-11-28T19:58:44.496Z,98615.48
2018-11-28T20:01:11.139Z,98611.13
2018-11-28T20:03:57.012Z,98621.07
2018-11-28T20:06:25.561Z,98622.61
2018-11-28T20:08:54.259Z,98619.39
2018-11-28T20:11:34.339Z,98621.79
2018-11-28T20:14:01.787Z,98628.44
2018-11-28T20:16:28.456Z,98626.89
2018-11-28T20:18:56.288Z,98630.69
2018-11-28T20:21:22.966Z,98634.49
2018-11-28T20:23:53.884Z,98635.16
2018-11-28T20:26:22.271Z,98630.56
2018-11-28T20:28:52.980Z,98633.88
2018-11-28T20:31:20.400Z,98624.05
2018-11-28T20:33:50.678Z,98626.06
2018-11-28T20:36:17.355Z,98627.95
2018-11-28T20:38:43.833Z,98629.04
2018-11-28T20:41:27.995Z,98635.66
2018-11-28T20:43:57.218Z,98642.17
2018-11-28T20:46:29.012Z,98639.09
2018-11-28T20:48:55.471Z,98633.53
2018-11-28T20:51:21.931Z,98637.31
2018-11-28T20:53:50.774Z,98641.22
2018-11-28T20:56:18.216Z,98632.17
2018-11-28T20:58:45.318Z,98643.57
2018-11-28T21:04:02.264Z,98640.81
2018-11-28T21:06:30.983Z,98643.91
2018-11-28T21:11:45.710Z,98637.16
2018-11-28T21:14:12.812Z,98629.30
2018-11-28T21:16:43.570Z,98635.48
2018-11-28T21:19:11.353Z,98638.81
2018-11-28T21:21:39.149Z,98646.40
2018-11-28T21:24:06.625Z,98649.12
2018-11-28T21:26:34.073Z,98645.70
2018-11-28T21:29:00.497Z,98649.03
2018-11-28T21:31:28.584Z,98653.42
2018-11-28T21:33:56.052Z,98655.69
2018-11-28T21:36:24.969Z,98650.56
2018-11-28T21:38:55.806Z,98653.42
2018-11-28T21:41:22.481Z,98655.62
2018-11-28T21:52:10.056Z,98669.16
2018-11-28T21:54:36.526Z,98662.60
2018-11-28T21:57:13.661Z,98655.28
2018-11-28T21:59:40.901Z,98669.40
2018-11-28T22:02:08.595Z,98687.30
2018-11-28T22:04:46.173Z,98670.94
2018-11-28T22:07:13.630Z,98672.24
2018-11-28T22:09:42.694Z,98661.17
2018-11-28T22:12:11.319Z,98670.70
2018-11-28T22:14:42.288Z,98671.45
2018-11-28T22:17:08.777Z,98679.01
2018-11-28T22:19:36.524Z,98677.64
2018-11-28T22:22:07.097Z,98673.89
2018-11-28T22:24:33.640Z,98674.16
2018-11-28T22:27:00.776Z,98676.88
2018-11-28T22:29:28.196Z,98678.04
2018-11-28T22:34:43.867Z,98689.19
2018-11-28T22:37:10.330Z,98682.33
2018-11-28T22:39:39.380Z,98688.59
2018-11-28T22:42:06.843Z,98682.90
2018-11-28T22:44:35.375Z,98689.08
2018-11-28T22:47:02.105Z,98688.84
2018-11-28T22:49:31.245Z,98681.36
2018-11-28T22:52:00.206Z,98680.68
2018-11-28T22:54:27.660Z,98679.70
2018-11-28T22:56:56.502Z,98677.70
2018-11-28T22:59:23.893Z,98681.13
2018-11-28T23:04:36.098Z,98680.55
2018-11-28T23:07:02.570Z,98677.11
2018-11-28T23:09:31.124Z,98684.82
2018-11-28T23:11:57.541Z,98687.64
2018-11-28T23:14:26.540Z,98689.78
2018-11-28T23:16:55.836Z,98684.63
2018-11-28T23:19:23.308Z,98683.75
2018-11-28T23:24:36.338Z,98688.21
2018-11-28T23:27:03.253Z,98690.42
2018-11-28T23:29:30.710Z,98691.91
2018-11-28T23:31:59.343Z,98684.58
2018-11-28T23:34:27.950Z,98685.39
2018-11-28T23:36:55.618Z,98684.07
2018-11-28T23:39:23.757Z,98687.34
2018-11-28T23:44:36.906Z,98687.66
2018-11-28T23:47:06.772Z,98682.19
2018-11-28T23:49:34.478Z,98684.58
2018-11-28T23:52:01.961Z,98688.75
2018-11-28T23:54:32.464Z,98686.04
2018-11-28T23:56:59.914Z,98687.06
2018-11-28T23:59:39.679Z,98688.83
